Bookmark and Share
Track history (hours):
 

Borja

Last reported at 2014-Apr-24 21:23 UTC. Time now 2014-Apr-24 22:11 UTC.
Position N 43°34' W 005°42'.

Length 186 m; draft 6.1 m.

Type: Ship. MMSI: 247196400.

NotesDate/timePositionNaut miles runAvg speedWind from/ knotsBaromVisibWave heightAir tempDewpointWater temp
2014-Apr-24 21:23N 43°34' W 005°42'0 0.0
2014-Apr-24 20:29N 43°34' W 005°42'0 0.0
2014-Apr-24 19:29N 43°34' W 005°42'0 0.0
2014-Apr-24 18:29N 43°34' W 005°42'0 0.0
2014-Apr-24 17:29N 43°34' W 005°42'0 0.0
2014-Apr-24 16:29N 43°34' W 005°42'0 0.0
2014-Apr-24 15:29N 43°34' W 005°42'0 0.0
2014-Apr-24 14:29N 43°34' W 005°42'0 0.0
2014-Apr-24 13:23N 43°34' W 005°42'0 0.0
2014-Apr-24 12:29N 43°34' W 005°42'0 0.0
2014-Apr-24 11:29N 43°34' W 005°42'0 0.0
2014-Apr-24 10:11N 43°34' W 005°42'0 0.0
2014-Apr-24 09:29N 43°34' W 005°42'0 0.0
2014-Apr-24 08:29N 43°34' W 005°42'0 0.0
2014-Apr-24 07:23N 43°34' W 005°42'0 0.0
2014-Apr-24 06:29N 43°34' W 005°42'0 0.0
2014-Apr-24 05:29N 43°34' W 005°42'0 0.0
2014-Apr-24 04:29N 43°34' W 005°42'0 0.0
2014-Apr-24 03:29N 43°34' W 005°42'0 0.0
2014-Apr-24 02:29N 43°34' W 005°42'0 0.0
2014-Apr-24 01:23N 43°34' W 005°42'0 0.0
2014-Apr-24 00:17N 43°34' W 005°42'0 0.0
2014-Apr-23 23:05N 43°34' W 005°42'0 0.0
2014-Apr-23 22:29N 43°34' W 005°42'0 0.0
2014-Apr-23 21:29N 43°34' W 005°42'0 0.0
2014-Apr-23 19:33N 43°34' W 005°42'0 0.2
2014-Apr-23 17:33N 43°33' W 005°41'1515.3
2014-Apr-23 16:33N 43°49' W 005°40'42919.1
2014-Apr-22 18:05N 50°30' W 001°56'917.6
2014-Apr-22 17:33N 50°39' W 001°55'4 3.9
2014-Apr-22 16:29N 50°42' W 001°59'0 0.0
2014-Apr-22 15:29N 50°42' W 001°59'0 0.0
2014-Apr-22 14:23N 50°42' W 001°59'0 0.0
2014-Apr-22 13:32N 50°42' W 001°59'0 0.0
2014-Apr-22 12:29N 50°42' W 001°59'0 0.0
2014-Apr-22 11:32N 50°42' W 001°59'0 0.1
2014-Apr-22 10:33N 50°42' W 001°59'5 4.5
2014-Apr-22 09:33N 50°40' W 001°54'0 0.0
2014-Apr-22 08:33N 50°40' W 001°54'0 0.0
2014-Apr-22 07:33N 50°40' W 001°54'0 0.0
2014-Apr-22 06:33N 50°40' W 001°54'0 0.0
2014-Apr-22 05:33N 50°40' W 001°54'0 0.0
2014-Apr-22 04:33N 50°40' W 001°54'0 0.0
2014-Apr-22 03:33N 50°40' W 001°54'0 0.0
2014-Apr-22 02:33N 50°40' W 001°54'0 0.0
2014-Apr-22 01:33N 50°40' W 001°54'0 0.0
2014-Apr-22 00:33N 50°40' W 001°54'5 4.4
2014-Apr-21 23:31N 50°42' W 001°59'0 0.0
2014-Apr-21 22:34N 50°42' W 001°59'6 6.4
2014-Apr-21 21:34N 50°37' W 001°54'1312.5
2014-Apr-21 20:33N 50°26' W 002°05'1818.0
2014-Apr-21 19:33N 50°17' W 002°29'15 0.3
2014-Apr-19 16:28N 50°25' W 002°08'1718.3
2014-Apr-19 15:33N 50°39' W 001°55'4 3.9
2014-Apr-19 14:31N 50°42' W 001°59'0 0.0
2014-Apr-19 13:28N 50°42' W 001°59'0 0.0
2014-Apr-19 12:31N 50°42' W 001°59'0 0.1
2014-Apr-19 11:33N 50°42' W 001°60'1010.1
2014-Apr-19 10:33N 50°33' W 001°55'42119.1
2014-Apr-18 12:29N 44°00' W 005°39'2021.8
2014-Apr-18 11:33N 43°40' W 005°40'7 5.2
2014-Apr-18 10:16N 43°33' W 005°41'0 0.0
2014-Apr-18 00:04N 43°33' W 005°41'0 0.0
2014-Apr-17 18:28N 43°33' W 005°41'0 0.5
2014-Apr-17 17:32N 43°34' W 005°42'0 0.0
2014-Apr-17 16:20N 43°34' W 005°42'0 0.0
2014-Apr-17 15:32N 43°34' W 005°42'0 0.0
2014-Apr-17 14:32N 43°34' W 005°42'0 0.0
2014-Apr-17 13:32N 43°34' W 005°42'0 0.0
2014-Apr-17 12:26N 43°34' W 005°42'0 0.0
2014-Apr-17 11:26N 43°34' W 005°42'0 0.0
2014-Apr-17 10:32N 43°34' W 005°42'0 0.0
2014-Apr-17 09:32N 43°34' W 005°42'0 0.0
2014-Apr-17 08:26N 43°34' W 005°42'0 0.0
2014-Apr-17 07:32N 43°34' W 005°42'0 0.0
2014-Apr-17 06:32N 43°34' W 005°42'0 0.1
2014-Apr-17 01:32N 43°33' W 005°41'0 0.0
2014-Apr-17 00:14N 43°33' W 005°41'0 0.0
2014-Apr-16 22:20N 43°33' W 005°41'0 0.0
2014-Apr-16 17:34N 43°33' W 005°41'1212.2
2014-Apr-16 16:33N 43°46' W 005°40'2017.4
2014-Apr-16 15:25N 44°06' W 005°39'39919.7
2014-Apr-15 19:11N 50°21' W 002°20'1320.4
2014-Apr-15 18:33N 50°27' W 002°02'1413.9
2014-Apr-15 17:33N 50°41' W 001°57'3 2.5
2014-Apr-15 16:33N 50°42' W 001°59'0 0.0
2014-Apr-15 15:24N 50°42' W 001°59'0 0.0
2014-Apr-15 10:34N 50°42' W 001°59'1 1.2
2014-Apr-15 09:34N 50°42' W 001°58'4 3.8
2014-Apr-15 08:32N 50°39' W 001°53'0 0.1
2014-Apr-15 07:32N 50°39' W 001°53'0 0.0
2014-Apr-15 05:32N 50°39' W 001°53'0 0.0
2014-Apr-15 03:32N 50°39' W 001°53'0 0.0
2014-Apr-15 02:32N 50°39' W 001°53'2 1.9
2014-Apr-15 01:34N 50°38' W 001°52'5 5.3
2014-Apr-15 00:34N 50°42' W 001°57'2 1.5
2014-Apr-14 23:33N 50°42' W 001°59'0 0.0
2014-Apr-14 22:33N 50°42' W 001°59'0 0.1
2014-Apr-14 21:34N 50°42' W 001°59'  

Dump ship's entire track history

sailing weather and tide predictions

Borja — ICEC — position and weather